Share

Hanksville, UT

5:03 AM MDT on April 24, 2014 (GMT -0600)
Canyonlands (KCNY) Elev 4554 ft | 38.75 °N, 109.76 °W | Change Station

Current weather conditions updated 10 minutes ago

Clear
Clear
30 °F
Feels Like 30 °F
N
0
Wind Variable Wind from North
Sunrise 6:34 AM
Sunset 8:07 PM
Moon Waning Crescent

Today is forecast to be Warmer than yesterday.

Pressure 30.06 in
Visibility 10.0 miles
Clouds Clear
Dew Point 4 °F
Humidity 33%
Rainfall 0.00 in
Snow Depth Not available.
UV 0 out of 16
Pollen 9.90 out of 12
Air Quality Not available.
Flu Activity Local Activity
METAR KCNY 241053Z AUTO 00000KT 10SM CLR M01/M16 A3008 RMK AO2 SLP179 T10111156

More Conditions Fewer Conditions

Pressure 30.06 in
Visibility 10.0 miles
Clouds Clear
Dew Point 4 °F
Humidity 33%
Rainfall 0.00 in
Snow Depth Not available.
UV 0 out of 16
Pollen 9.90 out of 12
Air Quality Not available.
Flu Activity Local Activity
METAR KCNY 241053Z AUTO 00000KT 10SM CLR M01/M16 A3008 RMK AO2 SLP179 T10111156

More Conditions Fewer Conditions

10-Day Weather Forecast

Almanac

Astronomy

Apr. 24, 2014 Rise Set
Actual Time 6:34 AM MDT 8:07 PM MDT
Civil Twilight 6:06 AM MDT 8:35 PM MDT
Nautical Twilight 5:33 AM MDT 9:09 PM MDT
Astronomical Twilight 4:57 AM MDT 9:45 PM MDT
Moon 3:43 AM MDT 3:31 PM MDT
Length of Visible Light 14h 29m
Length of Day
13h 33m
Tomorrow will be 2m 15s longer.
Waning Crescent, 27% of the Moon is Illuminated
Today
Waning Crescent
Apr 29
New
May 6
First Quarter
May 14
Full
May 21
Last Quarter

Today's Extremes

State Highs State Lows

Community

  • Stacked
    Stacked
  • clouds approaching Red Sox Nation
    clouds approaching Red Sox Nation
  • Balance
    Balance
  • Nestled In
    Nestled In
  • Stunning Sunrise
    Stunning Sunrise

WunderPhotos

Upload Photos

1,704,584 photos uploaded!

WunderBlogs® & News

Nearby

Snow Depth

Station Depth Elevation
Donkey Reservoir 3 in 9800 ft
Black Flat-U.M. Creek 4 in 9400 ft
Farnsworth Lake 47 in 9600 ft
Gooseberry R.S. 1 in 7920 ft
Dill's Camp 10 in 9200 ft

Coastal Water Temperatures

Place Temperature
No Stations Reporting

Earthquake Activity

City Distance Mag. Time & Date
No recent earthquake activity has been reported nearby.
Minimum magnitude displayed is 2.5.

Nearby Weather Stations

Station Location Temp. Windchill Dew Point Humidity Wind Precip. Elev Updated Type
MesoWest Caineville , Hanksville, UT 35 °F 32 °F 9 °F 33% WSW  at  4 mph 0.00 in / hr 4529 ft 4:00 AM MDT MADIS
RAWS HENRY MTN UT, Hanksville, UT 33 °F 26 °F 1 °F 25% North  at  8 mph 0.00 in / hr 8293 ft 3:57 AM MDT MADIS

Show More Stations Show Fewer Stations

What do you think?

We're not finished. Please let us know what you like, what you don't like, and what you are still missing.